sensor_id;sensor_type;location;lat;lon;timestamp;temperature;humidity
37786;DHT22;23625;48.784;9.336;2024-03-22T00:00:10;7.30;99.90
37786;DHT22;23625;48.784;9.336;2024-03-22T00:02:37;7.30;99.90
37786;DHT22;23625;48.784;9.336;2024-03-22T00:05:03;7.20;99.90
37786;DHT22;23625;48.784;9.336;2024-03-22T00:07:29;7.20;99.90
37786;DHT22;23625;48.784;9.336;2024-03-22T00:09:55;7.20;99.90
37786;DHT22;23625;48.784;9.336;2024-03-22T00:12:20;7.20;99.90
37786;DHT22;23625;48.784;9.336;2024-03-22T00:14:46;7.30;99.90
37786;DHT22;23625;48.784;9.336;2024-03-22T00:17:11;7.20;99.90
37786;DHT22;23625;48.784;9.336;2024-03-22T00:19:37;7.10;99.90
37786;DHT22;23625;48.784;9.336;2024-03-22T00:22:02;7.10;99.90
37786;DHT22;23625;48.784;9.336;2024-03-22T00:24:28;7.20;99.90
37786;DHT22;23625;48.784;9.336;2024-03-22T00:26:54;7.20;99.90
37786;DHT22;23625;48.784;9.336;2024-03-22T00:29:19;7.20;99.90
37786;DHT22;23625;48.784;9.336;2024-03-22T00:31:45;7.20;99.90
37786;DHT22;23625;48.784;9.336;2024-03-22T00:34:10;7.20;99.90
37786;DHT22;23625;48.784;9.336;2024-03-22T00:36:36;7.20;99.90
37786;DHT22;23625;48.784;9.336;2024-03-22T00:39:02;7.10;99.90
37786;DHT22;23625;48.784;9.336;2024-03-22T00:41:28;7.00;99.90
37786;DHT22;23625;48.784;9.336;2024-03-22T00:43:54;6.90;99.90
37786;DHT22;23625;48.784;9.336;2024-03-22T00:46:19;6.90;99.90
37786;DHT22;23625;48.784;9.336;2024-03-22T00:48:45;6.90;99.90
37786;DHT22;23625;48.784;9.336;2024-03-22T00:51:10;6.90;99.90
37786;DHT22;23625;48.784;9.336;2024-03-22T00:53:36;6.90;99.90
37786;DHT22;23625;48.784;9.336;2024-03-22T00:56:02;6.80;99.90
37786;DHT22;23625;48.784;9.336;2024-03-22T00:58:27;6.70;99.90
37786;DHT22;23625;48.784;9.336;2024-03-22T01:00:54;6.80;99.90
37786;DHT22;23625;48.784;9.336;2024-03-22T01:03:20;6.90;99.90
37786;DHT22;23625;48.784;9.336;2024-03-22T01:05:45;7.00;99.90
37786;DHT22;23625;48.784;9.336;2024-03-22T01:08:11;7.10;99.90
37786;DHT22;23625;48.784;9.336;2024-03-22T01:10:37;7.00;99.90
37786;DHT22;23625;48.784;9.336;2024-03-22T01:13:03;6.90;99.90
37786;DHT22;23625;48.784;9.336;2024-03-22T01:15:28;6.80;99.90
37786;DHT22;23625;48.784;9.336;2024-03-22T01:17:54;6.80;99.90
37786;DHT22;23625;48.784;9.336;2024-03-22T01:20:20;6.80;99.90
37786;DHT22;23625;48.784;9.336;2024-03-22T01:22:46;6.80;99.90
37786;DHT22;23625;48.784;9.336;2024-03-22T01:25:11;6.80;99.90
37786;DHT22;23625;48.784;9.336;2024-03-22T01:27:37;6.80;99.90
37786;DHT22;23625;48.784;9.336;2024-03-22T01:30:03;6.80;99.90
37786;DHT22;23625;48.784;9.336;2024-03-22T01:32:28;6.70;99.90
37786;DHT22;23625;48.784;9.336;2024-03-22T01:34:54;6.70;99.90
37786;DHT22;23625;48.784;9.336;2024-03-22T01:37:19;6.70;99.90
37786;DHT22;23625;48.784;9.336;2024-03-22T01:39:45;6.60;99.90
37786;DHT22;23625;48.784;9.336;2024-03-22T01:42:10;6.60;99.90
37786;DHT22;23625;48.784;9.336;2024-03-22T01:44:36;6.60;99.90
37786;DHT22;23625;48.784;9.336;2024-03-22T01:47:02;6.60;99.90
37786;DHT22;23625;48.784;9.336;2024-03-22T01:49:28;6.60;99.90
37786;DHT22;23625;48.784;9.336;2024-03-22T01:51:54;6.70;99.90
37786;DHT22;23625;48.784;9.336;2024-03-22T01:54:20;6.60;99.90
37786;DHT22;23625;48.784;9.336;2024-03-22T01:56:46;6.60;99.90
37786;DHT22;23625;48.784;9.336;2024-03-22T01:59:12;6.60;99.90
37786;DHT22;23625;48.784;9.336;2024-03-22T02:01:38;6.60;99.90
37786;DHT22;23625;48.784;9.336;2024-03-22T02:04:04;6.60;99.90
37786;DHT22;23625;48.784;9.336;2024-03-22T02:06:30;6.50;99.90
37786;DHT22;23625;48.784;9.336;2024-03-22T02:08:56;6.40;99.90
37786;DHT22;23625;48.784;9.336;2024-03-22T02:11:23;6.30;99.90
37786;DHT22;23625;48.784;9.336;2024-03-22T02:13:48;6.30;99.90
37786;DHT22;23625;48.784;9.336;2024-03-22T02:16:14;6.20;99.90
37786;DHT22;23625;48.784;9.336;2024-03-22T02:18:39;6.20;99.90
37786;DHT22;23625;48.784;9.336;2024-03-22T02:21:05;6.10;99.90
37786;DHT22;23625;48.784;9.336;2024-03-22T02:23:35;6.00;99.90
37786;DHT22;23625;48.784;9.336;2024-03-22T02:26:02;6.00;99.90
37786;DHT22;23625;48.784;9.336;2024-03-22T02:28:28;6.00;99.90
37786;DHT22;23625;48.784;9.336;2024-03-22T02:30:54;5.90;99.90
37786;DHT22;23625;48.784;9.336;2024-03-22T02:33:19;5.70;99.90
37786;DHT22;23625;48.784;9.336;2024-03-22T02:35:49;5.70;99.90
37786;DHT22;23625;48.784;9.336;2024-03-22T02:38:15;5.80;99.90
37786;DHT22;23625;48.784;9.336;2024-03-22T02:40:42;5.80;99.90
37786;DHT22;23625;48.784;9.336;2024-03-22T02:43:08;5.70;99.90
37786;DHT22;23625;48.784;9.336;2024-03-22T02:45:33;5.60;99.90
37786;DHT22;23625;48.784;9.336;2024-03-22T02:47:59;5.60;99.90
37786;DHT22;23625;48.784;9.336;2024-03-22T02:50:24;5.60;99.90
37786;DHT22;23625;48.784;9.336;2024-03-22T02:52:50;5.50;99.90
37786;DHT22;23625;48.784;9.336;2024-03-22T02:55:16;5.40;99.90
37786;DHT22;23625;48.784;9.336;2024-03-22T02:57:41;5.40;99.90
37786;DHT22;23625;48.784;9.336;2024-03-22T03:00:07;5.50;99.90
37786;DHT22;23625;48.784;9.336;2024-03-22T03:02:33;5.40;99.90
37786;DHT22;23625;48.784;9.336;2024-03-22T03:04:59;5.40;99.90
37786;DHT22;23625;48.784;9.336;2024-03-22T03:07:25;5.40;99.90
37786;DHT22;23625;48.784;9.336;2024-03-22T03:09:51;5.40;99.90
37786;DHT22;23625;48.784;9.336;2024-03-22T03:12:16;5.40;99.90
37786;DHT22;23625;48.784;9.336;2024-03-22T03:14:42;5.40;99.90
37786;DHT22;23625;48.784;9.336;2024-03-22T03:17:08;5.50;99.90
37786;DHT22;23625;48.784;9.336;2024-03-22T03:19:33;5.50;99.90
37786;DHT22;23625;48.784;9.336;2024-03-22T03:21:59;5.60;99.90
37786;DHT22;23625;48.784;9.336;2024-03-22T03:24:25;5.60;99.90
37786;DHT22;23625;48.784;9.336;2024-03-22T03:26:50;5.60;99.90
37786;DHT22;23625;48.784;9.336;2024-03-22T03:29:16;5.70;99.90
37786;DHT22;23625;48.784;9.336;2024-03-22T03:31:41;5.80;99.90
37786;DHT22;23625;48.784;9.336;2024-03-22T03:34:07;5.90;99.90
37786;DHT22;23625;48.784;9.336;2024-03-22T03:36:32;6.10;99.90
37786;DHT22;23625;48.784;9.336;2024-03-22T03:38:58;6.20;99.90
37786;DHT22;23625;48.784;9.336;2024-03-22T03:41:23;6.30;99.90
37786;DHT22;23625;48.784;9.336;2024-03-22T03:43:49;6.40;99.90
37786;DHT22;23625;48.784;9.336;2024-03-22T03:46:14;6.40;99.90
37786;DHT22;23625;48.784;9.336;2024-03-22T03:48:40;6.50;99.90
37786;DHT22;23625;48.784;9.336;2024-03-22T03:51:06;6.50;99.90
37786;DHT22;23625;48.784;9.336;2024-03-22T03:53:31;6.50;99.90
37786;DHT22;23625;48.784;9.336;2024-03-22T03:55:57;6.60;99.90
37786;DHT22;23625;48.784;9.336;2024-03-22T03:58:22;6.50;99.90
37786;DHT22;23625;48.784;9.336;2024-03-22T04:00:48;6.70;99.90
37786;DHT22;23625;48.784;9.336;2024-03-22T04:03:14;6.80;99.90
37786;DHT22;23625;48.784;9.336;2024-03-22T04:05:39;6.80;99.90
37786;DHT22;23625;48.784;9.336;2024-03-22T04:08:05;6.80;99.90
37786;DHT22;23625;48.784;9.336;2024-03-22T04:10:31;6.80;99.90
37786;DHT22;23625;48.784;9.336;2024-03-22T04:12:57;6.80;99.90
37786;DHT22;23625;48.784;9.336;2024-03-22T04:15:22;6.90;99.90
37786;DHT22;23625;48.784;9.336;2024-03-22T04:17:48;6.80;99.90
37786;DHT22;23625;48.784;9.336;2024-03-22T04:20:13;6.80;99.90
37786;DHT22;23625;48.784;9.336;2024-03-22T04:22:39;6.90;99.90
37786;DHT22;23625;48.784;9.336;2024-03-22T04:25:05;7.00;99.90
37786;DHT22;23625;48.784;9.336;2024-03-22T04:27:31;7.00;99.90
37786;DHT22;23625;48.784;9.336;2024-03-22T04:29:56;7.10;99.90
37786;DHT22;23625;48.784;9.336;2024-03-22T04:32:22;7.10;99.90
37786;DHT22;23625;48.784;9.336;2024-03-22T04:34:47;7.10;99.90
37786;DHT22;23625;48.784;9.336;2024-03-22T04:37:13;7.20;99.90
37786;DHT22;23625;48.784;9.336;2024-03-22T04:39:40;7.20;99.90
37786;DHT22;23625;48.784;9.336;2024-03-22T04:42:06;7.20;99.90
37786;DHT22;23625;48.784;9.336;2024-03-22T04:44:32;7.20;99.90
37786;DHT22;23625;48.784;9.336;2024-03-22T04:46:58;7.10;99.90
37786;DHT22;23625;48.784;9.336;2024-03-22T04:49:24;7.20;99.90
37786;DHT22;23625;48.784;9.336;2024-03-22T04:51:50;7.10;99.90
37786;DHT22;23625;48.784;9.336;2024-03-22T04:54:15;7.00;99.90
37786;DHT22;23625;48.784;9.336;2024-03-22T04:56:41;6.90;99.90
37786;DHT22;23625;48.784;9.336;2024-03-22T04:59:06;6.70;99.90
37786;DHT22;23625;48.784;9.336;2024-03-22T05:01:32;6.70;99.90
37786;DHT22;23625;48.784;9.336;2024-03-22T05:03:57;6.70;99.90
37786;DHT22;23625;48.784;9.336;2024-03-22T05:06:23;6.80;99.90
37786;DHT22;23625;48.784;9.336;2024-03-22T05:08:48;6.70;99.90
37786;DHT22;23625;48.784;9.336;2024-03-22T05:11:14;6.70;99.90
37786;DHT22;23625;48.784;9.336;2024-03-22T05:13:39;6.80;99.90
37786;DHT22;23625;48.784;9.336;2024-03-22T05:16:06;6.70;99.90
37786;DHT22;23625;48.784;9.336;2024-03-22T05:18:32;6.70;99.90
37786;DHT22;23625;48.784;9.336;2024-03-22T05:20:57;6.70;99.90
37786;DHT22;23625;48.784;9.336;2024-03-22T05:23:23;6.70;99.90
37786;DHT22;23625;48.784;9.336;2024-03-22T05:25:48;6.80;99.90
37786;DHT22;23625;48.784;9.336;2024-03-22T05:28:14;6.80;99.90
37786;DHT22;23625;48.784;9.336;2024-03-22T05:30:39;6.80;99.90
37786;DHT22;23625;48.784;9.336;2024-03-22T05:33:05;6.80;99.90
37786;DHT22;23625;48.784;9.336;2024-03-22T05:35:30;6.90;99.90
37786;DHT22;23625;48.784;9.336;2024-03-22T05:37:56;6.90;99.90
37786;DHT22;23625;48.784;9.336;2024-03-22T05:40:22;6.80;99.90
37786;DHT22;23625;48.784;9.336;2024-03-22T05:42:48;7.00;99.90
37786;DHT22;23625;48.784;9.336;2024-03-22T05:45:13;6.80;99.90
37786;DHT22;23625;48.784;9.336;2024-03-22T05:47:39;6.80;99.90
37786;DHT22;23625;48.784;9.336;2024-03-22T05:50:05;6.60;99.90
37786;DHT22;23625;48.784;9.336;2024-03-22T05:52:33;6.60;99.90
37786;DHT22;23625;48.784;9.336;2024-03-22T05:54:59;6.60;99.90
37786;DHT22;23625;48.784;9.336;2024-03-22T05:57:25;6.50;99.90
37786;DHT22;23625;48.784;9.336;2024-03-22T05:59:50;6.50;99.90
37786;DHT22;23625;48.784;9.336;2024-03-22T06:02:16;6.50;99.90
37786;DHT22;23625;48.784;9.336;2024-03-22T06:04:42;6.60;99.90
37786;DHT22;23625;48.784;9.336;2024-03-22T06:07:08;6.60;99.90
37786;DHT22;23625;48.784;9.336;2024-03-22T06:09:33;6.60;99.90
37786;DHT22;23625;48.784;9.336;2024-03-22T06:12:05;6.60;99.90
37786;DHT22;23625;48.784;9.336;2024-03-22T06:14:31;6.60;99.90
37786;DHT22;23625;48.784;9.336;2024-03-22T06:16:57;6.60;99.90
37786;DHT22;23625;48.784;9.336;2024-03-22T06:19:23;6.60;99.90
37786;DHT22;23625;48.784;9.336;2024-03-22T06:21:49;6.70;99.90
37786;DHT22;23625;48.784;9.336;2024-03-22T06:24:14;6.70;99.90
37786;DHT22;23625;48.784;9.336;2024-03-22T06:26:40;6.80;99.90
37786;DHT22;23625;48.784;9.336;2024-03-22T06:29:05;6.80;99.90
37786;DHT22;23625;48.784;9.336;2024-03-22T06:31:31;6.90;99.90
37786;DHT22;23625;48.784;9.336;2024-03-22T06:33:57;7.00;99.90
37786;DHT22;23625;48.784;9.336;2024-03-22T06:36:28;7.10;99.90
37786;DHT22;23625;48.784;9.336;2024-03-22T06:38:53;7.10;99.90
37786;DHT22;23625;48.784;9.336;2024-03-22T06:41:19;7.20;99.90
37786;DHT22;23625;48.784;9.336;2024-03-22T06:43:45;7.30;99.90
37786;DHT22;23625;48.784;9.336;2024-03-22T06:46:11;7.40;99.90
37786;DHT22;23625;48.784;9.336;2024-03-22T06:48:37;7.50;99.90
37786;DHT22;23625;48.784;9.336;2024-03-22T06:51:02;7.60;99.90
37786;DHT22;23625;48.784;9.336;2024-03-22T06:53:28;7.60;99.90
37786;DHT22;23625;48.784;9.336;2024-03-22T06:55:54;7.70;99.90
37786;DHT22;23625;48.784;9.336;2024-03-22T06:58:19;7.80;99.90
37786;DHT22;23625;48.784;9.336;2024-03-22T07:00:45;7.90;99.90
37786;DHT22;23625;48.784;9.336;2024-03-22T07:03:10;8.00;99.90
37786;DHT22;23625;48.784;9.336;2024-03-22T07:05:36;8.20;99.90
37786;DHT22;23625;48.784;9.336;2024-03-22T07:08:02;8.40;99.90
37786;DHT22;23625;48.784;9.336;2024-03-22T07:10:27;8.60;99.90
37786;DHT22;23625;48.784;9.336;2024-03-22T07:12:56;8.80;99.90
37786;DHT22;23625;48.784;9.336;2024-03-22T07:15:23;9.00;99.90
37786;DHT22;23625;48.784;9.336;2024-03-22T07:17:49;9.20;99.90
37786;DHT22;23625;48.784;9.336;2024-03-22T07:20:15;9.40;99.90
37786;DHT22;23625;48.784;9.336;2024-03-22T07:22:40;9.60;99.90
37786;DHT22;23625;48.784;9.336;2024-03-22T07:25:06;9.90;99.90
37786;DHT22;23625;48.784;9.336;2024-03-22T07:27:32;10.00;99.90
37786;DHT22;23625;48.784;9.336;2024-03-22T07:29:57;10.20;99.90
37786;DHT22;23625;48.784;9.336;2024-03-22T07:32:23;10.50;99.90
37786;DHT22;23625;48.784;9.336;2024-03-22T07:34:49;10.70;99.90
37786;DHT22;23625;48.784;9.336;2024-03-22T07:37:14;10.90;99.90
37786;DHT22;23625;48.784;9.336;2024-03-22T07:39:40;11.10;99.90
37786;DHT22;23625;48.784;9.336;2024-03-22T07:42:05;11.20;99.90
37786;DHT22;23625;48.784;9.336;2024-03-22T07:44:31;11.40;99.90
37786;DHT22;23625;48.784;9.336;2024-03-22T07:46:57;11.50;99.90
37786;DHT22;23625;48.784;9.336;2024-03-22T07:49:22;11.60;99.90
37786;DHT22;23625;48.784;9.336;2024-03-22T07:51:48;11.80;99.90
37786;DHT22;23625;48.784;9.336;2024-03-22T07:54:14;12.00;99.90
37786;DHT22;23625;48.784;9.336;2024-03-22T07:56:39;12.20;99.90
37786;DHT22;23625;48.784;9.336;2024-03-22T07:59:05;12.40;99.90
37786;DHT22;23625;48.784;9.336;2024-03-22T08:01:30;12.60;99.90
37786;DHT22;23625;48.784;9.336;2024-03-22T08:03:56;12.90;99.90
37786;DHT22;23625;48.784;9.336;2024-03-22T08:06:21;13.10;99.90
37786;DHT22;23625;48.784;9.336;2024-03-22T08:08:47;13.20;99.90
37786;DHT22;23625;48.784;9.336;2024-03-22T08:11:13;13.40;99.90
37786;DHT22;23625;48.784;9.336;2024-03-22T08:13:38;13.60;99.90
37786;DHT22;23625;48.784;9.336;2024-03-22T08:16:04;13.80;98.10
37786;DHT22;23625;48.784;9.336;2024-03-22T08:18:31;13.90;99.50
37786;DHT22;23625;48.784;9.336;2024-03-22T08:20:58;14.00;98.70
37786;DHT22;23625;48.784;9.336;2024-03-22T08:23:24;14.00;96.80
37786;DHT22;23625;48.784;9.336;2024-03-22T08:25:50;13.90;98.00
37786;DHT22;23625;48.784;9.336;2024-03-22T08:28:15;13.90;98.40
37786;DHT22;23625;48.784;9.336;2024-03-22T08:30:42;13.90;99.90
37786;DHT22;23625;48.784;9.336;2024-03-22T08:33:11;13.90;99.90
37786;DHT22;23625;48.784;9.336;2024-03-22T08:35:37;13.90;98.90
37786;DHT22;23625;48.784;9.336;2024-03-22T08:38:02;14.10;99.90
37786;DHT22;23625;48.784;9.336;2024-03-22T08:40:29;14.20;96.60
37786;DHT22;23625;48.784;9.336;2024-03-22T08:42:55;14.30;97.10
37786;DHT22;23625;48.784;9.336;2024-03-22T08:45:20;14.20;96.00
37786;DHT22;23625;48.784;9.336;2024-03-22T08:47:46;14.20;95.70
37786;DHT22;23625;48.784;9.336;2024-03-22T08:50:12;14.30;95.20
37786;DHT22;23625;48.784;9.336;2024-03-22T08:52:37;14.20;94.50
37786;DHT22;23625;48.784;9.336;2024-03-22T08:55:04;14.30;96.50
37786;DHT22;23625;48.784;9.336;2024-03-22T08:57:31;14.40;94.60
37786;DHT22;23625;48.784;9.336;2024-03-22T08:59:57;14.40;94.10
37786;DHT22;23625;48.784;9.336;2024-03-22T09:02:22;14.50;94.30
37786;DHT22;23625;48.784;9.336;2024-03-22T09:04:50;14.50;94.60
37786;DHT22;23625;48.784;9.336;2024-03-22T09:07:17;14.60;94.40
37786;DHT22;23625;48.784;9.336;2024-03-22T09:09:42;14.60;95.60
37786;DHT22;23625;48.784;9.336;2024-03-22T09:12:08;14.60;93.60
37786;DHT22;23625;48.784;9.336;2024-03-22T09:14:34;14.60;93.50
37786;DHT22;23625;48.784;9.336;2024-03-22T09:16:59;14.70;95.20
37786;DHT22;23625;48.784;9.336;2024-03-22T09:19:25;14.80;93.90
37786;DHT22;23625;48.784;9.336;2024-03-22T09:21:50;14.90;92.50
37786;DHT22;23625;48.784;9.336;2024-03-22T09:24:16;15.00;92.90
37786;DHT22;23625;48.784;9.336;2024-03-22T09:26:42;15.10;92.70
37786;DHT22;23625;48.784;9.336;2024-03-22T09:29:07;15.20;91.60
37786;DHT22;23625;48.784;9.336;2024-03-22T09:31:33;15.30;90.90
37786;DHT22;23625;48.784;9.336;2024-03-22T09:33:59;15.40;91.20
37786;DHT22;23625;48.784;9.336;2024-03-22T09:36:24;15.70;90.60
37786;DHT22;23625;48.784;9.336;2024-03-22T09:38:50;15.80;88.30
37786;DHT22;23625;48.784;9.336;2024-03-22T09:41:24;15.90;84.10
37786;DHT22;23625;48.784;9.336;2024-03-22T09:43:51;16.20;83.60
37786;DHT22;23625;48.784;9.336;2024-03-22T09:46:19;16.40;82.60
37786;DHT22;23625;48.784;9.336;2024-03-22T09:48:47;16.60;82.60
37786;DHT22;23625;48.784;9.336;2024-03-22T09:51:13;16.70;78.50
37786;DHT22;23625;48.784;9.336;2024-03-22T09:53:43;16.90;75.70
37786;DHT22;23625;48.784;9.336;2024-03-22T09:56:11;17.00;75.50
37786;DHT22;23625;48.784;9.336;2024-03-22T09:58:40;17.20;76.10
37786;DHT22;23625;48.784;9.336;2024-03-22T10:01:06;17.40;75.30
37786;DHT22;23625;48.784;9.336;2024-03-22T10:03:31;17.70;74.60
37786;DHT22;23625;48.784;9.336;2024-03-22T10:05:57;18.00;73.00
37786;DHT22;23625;48.784;9.336;2024-03-22T10:08:23;18.10;71.80
37786;DHT22;23625;48.784;9.336;2024-03-22T10:10:49;18.10;71.40
37786;DHT22;23625;48.784;9.336;2024-03-22T10:13:14;18.30;72.10
37786;DHT22;23625;48.784;9.336;2024-03-22T10:15:40;18.60;72.40
37786;DHT22;23625;48.784;9.336;2024-03-22T10:18:05;18.70;70.50
37786;DHT22;23625;48.784;9.336;2024-03-22T10:20:31;18.80;69.30
37786;DHT22;23625;48.784;9.336;2024-03-22T10:22:59;18.80;68.60
37786;DHT22;23625;48.784;9.336;2024-03-22T10:25:28;18.80;68.70
37786;DHT22;23625;48.784;9.336;2024-03-22T10:27:55;18.80;68.30
37786;DHT22;23625;48.784;9.336;2024-03-22T10:30:21;18.70;67.40
37786;DHT22;23625;48.784;9.336;2024-03-22T10:32:48;18.50;65.90
37786;DHT22;23625;48.784;9.336;2024-03-22T10:35:15;18.50;67.80
37786;DHT22;23625;48.784;9.336;2024-03-22T10:37:41;18.50;68.00
37786;DHT22;23625;48.784;9.336;2024-03-22T10:40:08;18.40;68.70
37786;DHT22;23625;48.784;9.336;2024-03-22T10:42:38;18.50;67.50
37786;DHT22;23625;48.784;9.336;2024-03-22T10:45:05;18.70;68.20
37786;DHT22;23625;48.784;9.336;2024-03-22T10:47:32;18.70;67.80
37786;DHT22;23625;48.784;9.336;2024-03-22T10:55:07;19.00;64.70
37786;DHT22;23625;48.784;9.336;2024-03-22T10:57:36;19.20;65.10
37786;DHT22;23625;48.784;9.336;2024-03-22T11:00:08;19.10;63.50
37786;DHT22;23625;48.784;9.336;2024-03-22T11:02:35;19.20;62.50
37786;DHT22;23625;48.784;9.336;2024-03-22T11:05:01;19.40;62.90
37786;DHT22;23625;48.784;9.336;2024-03-22T11:07:30;19.50;62.00
37786;DHT22;23625;48.784;9.336;2024-03-22T11:09:56;19.80;60.80
37786;DHT22;23625;48.784;9.336;2024-03-22T11:12:27;20.10;59.10
37786;DHT22;23625;48.784;9.336;2024-03-22T11:14:55;20.10;58.50
37786;DHT22;23625;48.784;9.336;2024-03-22T11:17:21;20.00;57.40
37786;DHT22;23625;48.784;9.336;2024-03-22T11:19:50;20.10;56.50
37786;DHT22;23625;48.784;9.336;2024-03-22T11:22:17;20.30;57.70
37786;DHT22;23625;48.784;9.336;2024-03-22T11:24:42;20.30;56.90
37786;DHT22;23625;48.784;9.336;2024-03-22T11:27:09;20.30;57.00
37786;DHT22;23625;48.784;9.336;2024-03-22T11:29:39;20.40;56.70
37786;DHT22;23625;48.784;9.336;2024-03-22T11:32:07;20.40;57.20
37786;DHT22;23625;48.784;9.336;2024-03-22T11:34:37;20.40;56.40
37786;DHT22;23625;48.784;9.336;2024-03-22T11:37:03;20.50;56.00
37786;DHT22;23625;48.784;9.336;2024-03-22T11:39:29;20.30;54.90
37786;DHT22;23625;48.784;9.336;2024-03-22T11:41:55;20.30;55.00
37786;DHT22;23625;48.784;9.336;2024-03-22T11:44:22;20.20;54.40
37786;DHT22;23625;48.784;9.336;2024-03-22T11:46:50;19.90;54.10
37786;DHT22;23625;48.784;9.336;2024-03-22T11:49:17;19.90;54.10
37786;DHT22;23625;48.784;9.336;2024-03-22T11:51:43;20.00;53.70
37786;DHT22;23625;48.784;9.336;2024-03-22T11:54:10;20.10;55.50
37786;DHT22;23625;48.784;9.336;2024-03-22T11:56:35;20.40;55.80
37786;DHT22;23625;48.784;9.336;2024-03-22T11:59:02;20.30;55.50
37786;DHT22;23625;48.784;9.336;2024-03-22T12:01:29;20.50;56.70
37786;DHT22;23625;48.784;9.336;2024-03-22T12:03:55;20.70;55.80
37786;DHT22;23625;48.784;9.336;2024-03-22T12:06:21;20.80;55.30
37786;DHT22;23625;48.784;9.336;2024-03-22T12:08:47;20.60;54.90
37786;DHT22;23625;48.784;9.336;2024-03-22T12:11:13;20.60;54.00
37786;DHT22;23625;48.784;9.336;2024-03-22T12:13:39;20.50;54.60
37786;DHT22;23625;48.784;9.336;2024-03-22T12:16:05;20.40;55.20
37786;DHT22;23625;48.784;9.336;2024-03-22T12:18:32;20.30;54.30
37786;DHT22;23625;48.784;9.336;2024-03-22T12:20:59;20.10;54.90
37786;DHT22;23625;48.784;9.336;2024-03-22T12:23:24;20.20;54.80
37786;DHT22;23625;48.784;9.336;2024-03-22T12:25:51;20.20;54.60
37786;DHT22;23625;48.784;9.336;2024-03-22T12:28:17;20.00;55.80
37786;DHT22;23625;48.784;9.336;2024-03-22T12:30:43;19.80;56.00
37786;DHT22;23625;48.784;9.336;2024-03-22T12:33:09;19.80;56.70
37786;DHT22;23625;48.784;9.336;2024-03-22T12:35:36;19.90;57.00
37786;DHT22;23625;48.784;9.336;2024-03-22T12:38:02;19.80;56.80
37786;DHT22;23625;48.784;9.336;2024-03-22T12:40:29;19.90;55.70
37786;DHT22;23625;48.784;9.336;2024-03-22T12:42:55;19.90;56.70
37786;DHT22;23625;48.784;9.336;2024-03-22T12:45:21;19.90;57.10
37786;DHT22;23625;48.784;9.336;2024-03-22T12:47:47;19.90;57.50
37786;DHT22;23625;48.784;9.336;2024-03-22T12:50:13;20.00;57.30
37786;DHT22;23625;48.784;9.336;2024-03-22T12:52:39;20.10;56.70
37786;DHT22;23625;48.784;9.336;2024-03-22T12:55:05;20.20;56.40
37786;DHT22;23625;48.784;9.336;2024-03-22T12:57:32;20.30;56.30
37786;DHT22;23625;48.784;9.336;2024-03-22T12:59:57;20.20;56.10
37786;DHT22;23625;48.784;9.336;2024-03-22T13:02:23;20.30;56.30
37786;DHT22;23625;48.784;9.336;2024-03-22T13:04:51;20.30;55.90
37786;DHT22;23625;48.784;9.336;2024-03-22T13:07:19;20.30;55.30
37786;DHT22;23625;48.784;9.336;2024-03-22T13:09:45;20.40;55.70
37786;DHT22;23625;48.784;9.336;2024-03-22T13:12:10;20.40;54.50
37786;DHT22;23625;48.784;9.336;2024-03-22T13:14:36;20.40;55.10
37786;DHT22;23625;48.784;9.336;2024-03-22T13:17:01;20.60;56.30
37786;DHT22;23625;48.784;9.336;2024-03-22T13:19:27;20.70;55.60
37786;DHT22;23625;48.784;9.336;2024-03-22T13:21:52;20.80;55.00
37786;DHT22;23625;48.784;9.336;2024-03-22T13:24:18;21.00;54.30
37786;DHT22;23625;48.784;9.336;2024-03-22T13:26:44;21.20;54.90
37786;DHT22;23625;48.784;9.336;2024-03-22T13:29:10;21.40;54.60
37786;DHT22;23625;48.784;9.336;2024-03-22T13:31:36;21.50;54.00
37786;DHT22;23625;48.784;9.336;2024-03-22T13:34:01;21.50;53.50
37786;DHT22;23625;48.784;9.336;2024-03-22T13:36:27;21.50;53.20
37786;DHT22;23625;48.784;9.336;2024-03-22T13:38:53;21.40;53.00
37786;DHT22;23625;48.784;9.336;2024-03-22T13:41:19;21.50;52.20
37786;DHT22;23625;48.784;9.336;2024-03-22T13:43:44;21.30;52.40
37786;DHT22;23625;48.784;9.336;2024-03-22T13:46:10;21.10;52.70
37786;DHT22;23625;48.784;9.336;2024-03-22T13:48:40;21.10;52.20
37786;DHT22;23625;48.784;9.336;2024-03-22T13:51:06;21.00;51.80
37786;DHT22;23625;48.784;9.336;2024-03-22T13:53:31;21.00;52.80
37786;DHT22;23625;48.784;9.336;2024-03-22T13:55:57;21.00;52.70
37786;DHT22;23625;48.784;9.336;2024-03-22T13:58:22;20.90;53.30
37786;DHT22;23625;48.784;9.336;2024-03-22T14:00:48;20.80;53.20
37786;DHT22;23625;48.784;9.336;2024-03-22T14:03:14;20.60;53.90
37786;DHT22;23625;48.784;9.336;2024-03-22T14:05:39;20.50;54.10
37786;DHT22;23625;48.784;9.336;2024-03-22T14:08:05;20.40;54.50
37786;DHT22;23625;48.784;9.336;2024-03-22T14:10:31;20.40;54.70
37786;DHT22;23625;48.784;9.336;2024-03-22T14:12:57;20.60;54.30
37786;DHT22;23625;48.784;9.336;2024-03-22T14:15:23;20.60;53.70
37786;DHT22;23625;48.784;9.336;2024-03-22T14:17:56;20.50;54.50
37786;DHT22;23625;48.784;9.336;2024-03-22T14:20:23;20.40;54.80
37786;DHT22;23625;48.784;9.336;2024-03-22T14:22:48;20.40;55.00
37786;DHT22;23625;48.784;9.336;2024-03-22T14:25:14;20.30;55.60
37786;DHT22;23625;48.784;9.336;2024-03-22T14:27:39;20.10;56.30
37786;DHT22;23625;48.784;9.336;2024-03-22T14:30:10;20.00;56.40
37786;DHT22;23625;48.784;9.336;2024-03-22T14:32:38;19.90;57.00
37786;DHT22;23625;48.784;9.336;2024-03-22T14:35:04;19.80;56.80
37786;DHT22;23625;48.784;9.336;2024-03-22T14:37:30;19.70;56.20
37786;DHT22;23625;48.784;9.336;2024-03-22T14:39:56;19.60;56.50
37786;DHT22;23625;48.784;9.336;2024-03-22T14:42:21;19.40;57.10
37786;DHT22;23625;48.784;9.336;2024-03-22T14:44:47;19.40;56.90
37786;DHT22;23625;48.784;9.336;2024-03-22T14:47:13;19.40;57.10
37786;DHT22;23625;48.784;9.336;2024-03-22T14:49:38;19.30;58.00
37786;DHT22;23625;48.784;9.336;2024-03-22T14:52:06;19.20;58.70
37786;DHT22;23625;48.784;9.336;2024-03-22T14:54:31;19.20;59.20
37786;DHT22;23625;48.784;9.336;2024-03-22T14:56:57;19.10;59.50
37786;DHT22;23625;48.784;9.336;2024-03-22T14:59:22;19.10;59.40
37786;DHT22;23625;48.784;9.336;2024-03-22T15:01:48;19.10;59.70
37786;DHT22;23625;48.784;9.336;2024-03-22T15:04:14;19.10;59.50
37786;DHT22;23625;48.784;9.336;2024-03-22T15:06:39;19.00;58.90
37786;DHT22;23625;48.784;9.336;2024-03-22T15:09:05;19.00;58.50
37786;DHT22;23625;48.784;9.336;2024-03-22T15:11:36;19.10;58.70
37786;DHT22;23625;48.784;9.336;2024-03-22T15:14:02;19.20;58.20
37786;DHT22;23625;48.784;9.336;2024-03-22T15:16:28;19.20;57.20
37786;DHT22;23625;48.784;9.336;2024-03-22T15:18:54;19.10;57.60
37786;DHT22;23625;48.784;9.336;2024-03-22T15:21:19;19.10;55.90
37786;DHT22;23625;48.784;9.336;2024-03-22T15:23:46;19.00;53.20
37786;DHT22;23625;48.784;9.336;2024-03-22T15:26:12;18.80;53.20
37786;DHT22;23625;48.784;9.336;2024-03-22T15:28:37;18.70;53.20
37786;DHT22;23625;48.784;9.336;2024-03-22T15:31:03;18.50;53.30
37786;DHT22;23625;48.784;9.336;2024-03-22T15:33:28;18.50;53.90